Time;durP1;ratioP1;P1;durP2;ratioP2;P2;SDS_P1;SDS_P2;PMS_P1;PMS_P2;Temp;Humidity;BMP_temperature;BMP_pressure;BME280_temperature;BME280_humidity;BME280_pressure;Samples;Min_cycle;Max_cycle;Signal;HPM_P1;HPM_P2
2022/09/22 00:01:56;;;;;;;;;;;;;;;7.14;76.68;98804.38;5064483;28;19925;-69
2022/09/22 00:04:24;;;;;;;;;;;;;;;7.14;76.39;98801.66;5081130;28;19925;-69
2022/09/22 00:06:52;;;;;;;;;;;;;;;7.11;76.72;98799.50;5067066;28;19978;-70
2022/09/22 00:09:20;;;;;;;;;;;;;;;7.12;76.67;98806.50;5066750;28;20011;-67
2022/09/22 00:11:49;;;;;;;;;;;;;;;7.04;76.79;98807.84;5068712;28;20385;-69
2022/09/22 00:14:21;;;;;;;;;;;;;;;7.03;77.21;98802.69;5069290;28;19925;-70
2022/09/22 00:16:49;;;;;;;;;;;;;;;7.00;76.82;98805.94;5056455;28;19932;-69
2022/09/22 00:19:18;;;;;;;;;;;;;;;7.02;77.07;98807.28;5064700;28;19925;-67
2022/09/22 00:22:09;;;;;;;;;;;;;;;7.07;76.91;98795.69;5071014;28;19924;-69
2022/09/22 00:24:47;;;;;;;;;;;;;;;7.08;76.71;98800.00;5058708;28;19928;-69
2022/09/22 00:27:16;;;;;;;;;;;;;;;7.08;76.73;98790.03;5077860;28;19960;-68
2022/09/22 00:29:45;;;;;;;;;;;;;;;6.71;77.45;98798.28;5072301;28;20371;-69
2022/09/22 00:32:13;;;;;;;;;;;;;;;6.74;77.84;98784.25;5058900;28;19928;-69
2022/09/22 00:34:41;;;;;;;;;;;;;;;6.85;77.49;98781.59;5067350;28;19928;-70
2022/09/22 00:37:09;;;;;;;;;;;;;;;6.76;77.84;98786.69;5068060;28;19978;-69
2022/09/22 00:39:37;;;;;;;;;;;;;;;6.79;77.55;98786.97;5064251;28;19933;-69
2022/09/22 00:42:29;;;;;;;;;;;;;;;6.86;77.19;98792.13;5062693;28;20260;-69
2022/09/22 00:45:00;;;;;;;;;;;;;;;6.90;76.84;98787.81;5066032;28;19978;-59
2022/09/22 00:47:32;;;;;;;;;;;;;;;6.89;77.15;98785.38;5062828;28;19972;-67
2022/09/22 00:50:03;;;;;;;;;;;;;;;6.90;76.74;98781.59;5059345;28;19924;-69
2022/09/22 00:52:32;;;;;;;;;;;;;;;6.81;77.32;98784.00;5057841;28;19956;-69
2022/09/22 00:55:00;;;;;;;;;;;;;;;6.81;77.16;98784.81;5082854;28;20404;-70
2022/09/22 00:57:30;;;;;;;;;;;;;;;6.71;77.81;98789.34;5058196;28;19925;-66
2022/09/22 01:00:01;;;;;;;;;;;;;;;6.71;77.89;98781.25;5060706;28;19925;-70
2022/09/22 01:02:30;;;;;;;;;;;;;;;6.53;78.35;98788.75;5074682;28;20297;-70
2022/09/22 01:05:01;;;;;;;;;;;;;;;6.68;77.87;98785.31;5068105;28;20404;-69
2022/09/22 01:07:30;;;;;;;;;;;;;;;6.57;78.15;98780.94;5070522;28;20455;-69
2022/09/22 01:09:58;;;;;;;;;;;;;;;6.57;78.34;98783.66;5067921;28;19952;-67
2022/09/22 01:12:26;;;;;;;;;;;;;;;6.70;77.94;98771.53;5067624;28;20407;-69
2022/09/22 01:15:02;;;;;;;;;;;;;;;6.54;78.32;98782.28;5068257;28;20027;-70
2022/09/22 01:17:31;;;;;;;;;;;;;;;6.25;79.37;98781.06;5061585;28;19924;-69
2022/09/22 01:20:05;;;;;;;;;;;;;;;6.54;78.39;98773.38;5070491;28;20392;-69
2022/09/22 01:22:58;;;;;;;;;;;;;;;6.62;77.77;98770.16;5068013;28;20486;-69
2022/09/22 01:25:33;;;;;;;;;;;;;;;6.53;77.95;98771.75;5070022;28;19939;-66
2022/09/22 01:28:06;;;;;;;;;;;;;;;6.57;77.92;98772.84;5083471;28;19943;-68
2022/09/22 01:30:37;;;;;;;;;;;;;;;6.50;77.88;98765.00;5063471;28;20031;-69
2022/09/22 01:33:30;;;;;;;;;;;;;;;6.51;77.56;98766.63;5070834;28;19925;-70
2022/09/22 01:36:24;;;;;;;;;;;;;;;6.58;77.65;98763.66;5058183;28;20314;-69
2022/09/22 01:38:55;;;;;;;;;;;;;;;6.54;77.89;98766.06;5068334;28;20007;-69
2022/09/22 01:41:24;;;;;;;;;;;;;;;6.67;77.15;98762.09;5067328;28;20422;-69
2022/09/22 01:43:52;;;;;;;;;;;;;;;6.55;77.44;98767.72;5067515;28;19934;-69
2022/09/22 01:46:23;;;;;;;;;;;;;;;6.57;77.37;98745.84;5058579;28;19973;-69
2022/09/22 01:48:51;;;;;;;;;;;;;;;6.45;77.66;98756.88;5069909;28;20426;-69
2022/09/22 01:51:21;;;;;;;;;;;;;;;6.22;78.62;98760.81;5062841;28;20027;-70
2022/09/22 01:53:51;;;;;;;;;;;;;;;6.16;79.12;98755.66;5064651;28;19933;-68
2022/09/22 01:56:43;;;;;;;;;;;;;;;5.84;79.87;98761.91;5066367;28;21187;-68
2022/09/22 01:59:11;;;;;;;;;;;;;;;6.09;79.12;98760.47;5063341;28;19947;-70
2022/09/22 02:01:44;;;;;;;;;;;;;;;6.18;78.74;98759.72;5060117;28;20408;-69
2022/09/22 02:04:14;;;;;;;;;;;;;;;5.98;79.11;98748.81;5066361;28;19924;-59
2022/09/22 02:06:43;;;;;;;;;;;;;;;6.15;78.71;98762.13;5065545;28;19924;-69
2022/09/22 02:09:14;;;;;;;;;;;;;;;6.17;78.14;98758.06;5062944;28;19950;-67
2022/09/22 02:12:02;;;;;;;;;;;;;;;6.23;78.01;98754.34;5069350;28;19928;-69
2022/09/22 02:14:33;;;;;;;;;;;;;;;6.23;77.89;98757.06;5065681;28;19932;-70
2022/09/22 02:17:13;;;;;;;;;;;;;;;6.25;78.00;98757.59;5067543;28;19925;-65
2022/09/22 02:19:49;;;;;;;;;;;;;;;6.00;78.69;98752.84;5078267;28;20018;-70
2022/09/22 02:22:58;;;;;;;;;;;;;;;6.12;78.29;98752.66;5059849;28;19925;-70
2022/09/22 02:25:26;;;;;;;;;;;;;;;6.21;78.25;98751.09;5063428;28;19948;-70
2022/09/22 02:28:19;;;;;;;;;;;;;;;6.25;78.00;98752.19;5061960;28;20551;-66
2022/09/22 02:30:50;;;;;;;;;;;;;;;6.28;77.82;98753.53;5072833;28;20037;-69
2022/09/22 02:33:45;;;;;;;;;;;;;;;6.28;77.69;98750.84;5070914;28;19928;-70
2022/09/22 02:36:17;;;;;;;;;;;;;;;6.25;77.55;98757.59;5058961;28;19929;-65
2022/09/22 02:38:48;;;;;;;;;;;;;;;6.29;77.80;98756.00;5065743;28;19970;-70
2022/09/22 02:41:19;;;;;;;;;;;;;;;6.29;77.35;98755.19;5062315;28;20380;-69
2022/09/22 02:43:54;;;;;;;;;;;;;;;6.23;77.67;98750.81;5062446;28;19925;-70
2022/09/22 02:46:24;;;;;;;;;;;;;;;6.25;77.42;98751.38;5068022;28;19947;-70
2022/09/22 02:48:55;;;;;;;;;;;;;;;6.23;77.50;98748.13;5070989;28;19960;-69
2022/09/22 02:51:23;;;;;;;;;;;;;;;6.07;78.06;98755.31;5071246;28;19932;-68
2022/09/22 02:53:53;;;;;;;;;;;;;;;5.87;78.95;98752.50;5071317;28;20293;-70
2022/09/22 02:56:21;;;;;;;;;;;;;;;6.10;78.21;98746.72;5070081;28;19933;-69
2022/09/22 02:58:49;;;;;;;;;;;;;;;6.16;77.71;98748.38;5068943;28;19925;-69
2022/09/22 03:01:21;;;;;;;;;;;;;;;6.16;77.41;98752.94;5072023;28;19933;-69
2022/09/22 03:03:49;;;;;;;;;;;;;;;6.16;77.22;98751.06;5071790;28;19970;-70
2022/09/22 03:06:19;;;;;;;;;;;;;;;5.97;77.78;98748.00;5069332;28;19971;-67
2022/09/22 03:09:11;;;;;;;;;;;;;;;5.98;77.84;98752.31;5068483;28;20399;-70
2022/09/22 03:11:41;;;;;;;;;;;;;;;6.05;77.52;98749.38;5069900;28;19924;-69
2022/09/22 03:14:11;;;;;;;;;;;;;;;6.11;77.11;98753.72;5068877;28;19924;-70
2022/09/22 03:16:39;;;;;;;;;;;;;;;6.10;77.03;98754.81;5070206;28;20396;-69
2022/09/22 03:19:07;;;;;;;;;;;;;;;5.53;78.69;98748.19;5073350;28;19932;-70
2022/09/22 03:21:36;;;;;;;;;;;;;;;5.87;77.64;98749.78;5072272;28;20457;-69
2022/09/22 03:24:04;;;;;;;;;;;;;;;5.92;77.52;98742.56;5071882;28;19924;-70
2022/09/22 03:26:33;;;;;;;;;;;;;;;5.91;77.49;98740.97;5086512;28;19925;-62
2022/09/22 03:29:08;;;;;;;;;;;;;;;5.93;77.63;98740.69;5071577;28;19933;-69
2022/09/22 03:31:35;;;;;;;;;;;;;;;5.90;77.46;98741.16;5070800;28;19924;-70
2022/09/22 03:34:04;;;;;;;;;;;;;;;5.86;77.45;98740.88;5064941;28;19925;-69
2022/09/22 03:36:34;;;;;;;;;;;;;;;5.89;76.80;98736.84;5067357;28;20285;-69
2022/09/22 03:39:04;;;;;;;;;;;;;;;5.88;77.14;98741.44;5070851;28;19971;-70
2022/09/22 03:41:32;;;;;;;;;;;;;;;5.87;76.93;98747.09;5080799;28;20688;-68
2022/09/22 03:44:00;;;;;;;;;;;;;;;5.76;76.97;98747.03;5068591;28;20015;-71
2022/09/22 03:46:29;;;;;;;;;;;;;;;5.79;76.76;98738.41;5064024;28;19925;-68
2022/09/22 03:48:57;;;;;;;;;;;;;;;5.69;77.18;98746.41;5074874;28;20442;-70
2022/09/22 03:51:25;;;;;;;;;;;;;;;5.72;77.21;98743.22;5068409;28;19932;-69
2022/09/22 03:53:55;;;;;;;;;;;;;;;5.75;76.83;98750.81;5063749;28;19924;-70
2022/09/22 03:56:25;;;;;;;;;;;;;;;5.75;76.43;98742.72;5068379;28;19925;-69
2022/09/22 03:58:57;;;;;;;;;;;;;;;5.75;76.02;98742.72;5080223;28;20424;-71
2022/09/22 04:01:25;;;;;;;;;;;;;;;5.72;76.03;98743.22;5061987;28;19933;-70
2022/09/22 04:03:53;;;;;;;;;;;;;;;5.68;76.50;98733.19;5058720;28;20015;-67
2022/09/22 04:06:45;;;;;;;;;;;;;;;5.73;76.38;98734.06;5071107;28;19954;-69
2022/09/22 04:09:17;;;;;;;;;;;;;;;5.63;76.36;98735.88;5069679;28;20019;-66
2022/09/22 04:11:49;;;;;;;;;;;;;;;5.28;77.83;98733.72;5070573;28;20296;-70
2022/09/22 04:14:17;;;;;;;;;;;;;;;5.44;76.98;98738.16;5067154;28;19929;-70
2022/09/22 04:16:45;;;;;;;;;;;;;;;5.52;77.54;98740.38;5086296;28;19931;-69
2022/09/22 04:19:14;;;;;;;;;;;;;;;5.60;77.05;98737.22;5069409;28;19942;-65
2022/09/22 04:22:06;;;;;;;;;;;;;;;5.63;76.86;98723.19;5070483;28;19931;-69
2022/09/22 04:24:34;;;;;;;;;;;;;;;5.62;76.55;98735.06;5068599;28;19924;-69
2022/09/22 04:27:03;;;;;;;;;;;;;;;5.60;76.70;98728.31;5071370;28;19925;-68
2022/09/22 04:29:47;;;;;;;;;;;;;;;5.61;76.69;98733.44;5068545;28;19935;-70
2022/09/22 04:32:16;;;;;;;;;;;;;;;5.46;76.73;98736.00;5069980;28;19928;-70
2022/09/22 04:34:54;;;;;;;;;;;;;;;5.57;76.88;98732.31;5066776;28;20436;-69
2022/09/22 04:37:27;;;;;;;;;;;;;;;5.58;76.82;98723.16;5062817;28;19924;-70
2022/09/22 04:39:55;;;;;;;;;;;;;;;5.68;76.45;98728.63;5052946;28;20046;-69
2022/09/22 04:42:24;;;;;;;;;;;;;;;5.55;76.78;98729.09;5043454;28;19932;-70
2022/09/22 04:44:55;;;;;;;;;;;;;;;5.62;76.19;98735.06;5061404;28;19925;-70
2022/09/22 04:47:24;;;;;;;;;;;;;;;4.99;77.10;98731.28;5050806;28;19978;-69
2022/09/22 04:49:52;;;;;;;;;;;;;;;4.90;77.94;98730.09;5060704;28;19972;-70
2022/09/22 04:52:20;;;;;;;;;;;;;;;5.05;77.83;98726.75;5067060;28;19986;-69
2022/09/22 04:54:48;;;;;;;;;;;;;;;5.17;77.12;98728.25;5050923;28;19928;-70
2022/09/22 04:57:21;;;;;;;;;;;;;;;5.21;76.69;98737.41;5060888;28;19977;-70
2022/09/22 04:59:50;;;;;;;;;;;;;;;5.27;76.17;98735.56;5071560;28;20353;-65
2022/09/22 05:02:18;;;;;;;;;;;;;;;5.32;76.03;98740.19;5063704;28;19924;-66
2022/09/22 05:07:40;;;;;;;;;;;;;;;5.22;76.06;98728.28;5051226;28;19977;-68
2022/09/22 05:10:09;;;;;;;;;;;;;;;5.22;76.22;98730.97;5045318;28;20376;-69
2022/09/22 05:12:38;;;;;;;;;;;;;;;5.19;75.79;98736.88;5066017;28;19924;-68
2022/09/22 05:15:09;;;;;;;;;;;;;;;5.19;75.84;98731.47;5066539;28;20002;-69
2022/09/22 05:17:38;;;;;;;;;;;;;;;5.24;75.69;98728.81;5063743;28;19925;-70
2022/09/22 05:20:07;;;;;;;;;;;;;;;5.27;75.55;98732.88;5063054;28;20382;-69
2022/09/22 05:22:35;;;;;;;;;;;;;;;5.19;75.60;98731.47;5050376;28;20492;-70
2022/09/22 05:25:07;;;;;;;;;;;;;;;5.22;75.40;98730.97;5065914;28;19935;-70
2022/09/22 05:27:35;;;;;;;;;;;;;;;5.18;75.42;98732.56;5060544;28;20031;-64
2022/09/22 05:30:09;;;;;;;;;;;;;;;5.13;75.17;98743.28;5065257;28;19932;-70
2022/09/22 05:32:37;;;;;;;;;;;;;;;5.14;75.44;98739.50;5065256;28;19924;-69
2022/09/22 05:35:05;;;;;;;;;;;;;;;5.22;75.33;98740.94;5073860;28;19970;-67
2022/09/22 05:37:58;;;;;;;;;;;;;;;5.12;75.49;98744.34;5065581;28;19925;-68
2022/09/22 05:40:51;;;;;;;;;;;;;;;4.91;75.66;98750.59;5067959;28;20016;-63
2022/09/22 05:43:19;;;;;;;;;;;;;;;5.02;75.56;98746.94;5058518;28;19924;-65
2022/09/22 05:45:49;;;;;;;;;;;;;;;5.00;75.60;98749.06;5067846;28;19932;-68
2022/09/22 05:48:17;;;;;;;;;;;;;;;4.95;75.52;98746.31;5063477;28;19962;-68
2022/09/22 05:50:45;;;;;;;;;;;;;;;4.59;76.74;98751.34;5065291;28;20357;-67
2022/09/22 05:53:13;;;;;;;;;;;;;;;4.86;76.07;98742.47;5082227;28;20049;-63
2022/09/22 05:55:41;;;;;;;;;;;;;;;4.62;76.89;98753.50;5069256;28;20367;-69
2022/09/22 05:58:10;;;;;;;;;;;;;;;4.57;77.04;98766.09;5070195;28;19924;-67
2022/09/22 06:03:56;;;;;;;;;;;;;;;4.37;77.80;98751.34;5064050;28;19929;-69
2022/09/22 06:06:49;;;;;;;;;;;;;;;4.66;77.33;98757.34;5063357;28;20438;-69
2022/09/22 06:09:16;;;;;;;;;;;;;;;4.53;77.20;98754.19;5063385;28;19920;-68
2022/09/22 06:11:44;;;;;;;;;;;;;;;4.82;76.78;98758.31;5066174;28;19924;-68
2022/09/22 06:14:12;;;;;;;;;;;;;;;4.93;76.18;98753.84;5070903;28;19927;-60
2022/09/22 06:16:42;;;;;;;;;;;;;;;5.04;76.10;98757.47;5068615;28;20445;-67
2022/09/22 06:19:19;;;;;;;;;;;;;;;5.09;75.60;98752.94;5081233;28;20356;-69
2022/09/22 06:22:10;;;;;;;;;;;;;;;5.19;75.68;98758.41;5075263;28;19921;-68
2022/09/22 06:24:54;;;;;;;;;;;;;;;5.09;76.32;98752.94;5086876;28;20398;-69
2022/09/22 06:31:05;;;;;;;;;;;;;;;5.15;76.45;98760.00;5087241;28;20364;-64
2022/09/22 06:33:58;;;;;;;;;;;;;;;5.26;76.33;98763.59;5067346;28;19972;-69
2022/09/22 06:36:31;;;;;;;;;;;;;;;5.45;75.70;98766.72;5072732;28;19920;-69
2022/09/22 06:39:01;;;;;;;;;;;;;;;5.25;76.43;98764.66;5074914;28;19970;-69
2022/09/22 06:41:35;;;;;;;;;;;;;;;5.56;75.47;98765.75;5064954;28;20023;-69
2022/09/22 06:44:05;;;;;;;;;;;;;;;5.67;75.37;98763.94;5068454;28;19924;-69
2022/09/22 06:46:34;;;;;;;;;;;;;;;5.77;75.07;98764.00;5073126;28;19960;-69
2022/09/22 06:49:12;;;;;;;;;;;;;;;5.50;76.34;98764.09;5067408;28;19954;-59
2022/09/22 06:51:57;;;;;;;;;;;;;;;5.82;75.17;98763.25;5069920;28;20039;-67
2022/09/22 06:54:30;;;;;;;;;;;;;;;5.97;74.90;98757.97;5059998;28;19920;-67
2022/09/22 06:56:58;;;;;;;;;;;;;;;6.04;74.55;98769.34;5072551;28;19920;-69
2022/09/22 06:59:27;;;;;;;;;;;;;;;6.09;74.49;98766.69;5071425;28;19927;-66
2022/09/22 07:01:56;;;;;;;;;;;;;;;6.16;74.28;98766.44;5067416;28;19928;-69
2022/09/22 07:04:24;;;;;;;;;;;;;;;6.22;74.40;98763.50;5061626;28;20391;-64
2022/09/22 07:06:53;;;;;;;;;;;;;;;6.32;74.07;98765.44;5068944;28;19924;-68
2022/09/22 07:09:26;;;;;;;;;;;;;;;6.38;74.02;98763.56;5071945;28;19920;-67
2022/09/22 07:11:55;;;;;;;;;;;;;;;6.39;74.49;98765.19;5077350;28;19942;-67
2022/09/22 07:14:24;;;;;;;;;;;;;;;6.48;74.02;98763.63;5070418;28;19931;-67
2022/09/22 07:16:54;;;;;;;;;;;;;;;6.55;73.84;98764.19;5067141;28;19936;-68
2022/09/22 07:19:22;;;;;;;;;;;;;;;6.49;74.52;98763.34;5063919;28;20447;-68
2022/09/22 07:21:52;;;;;;;;;;;;;;;6.33;75.41;98761.66;5072249;28;19921;-68
2022/09/22 07:24:20;;;;;;;;;;;;;;;6.47;74.96;98756.59;5073179;28;19920;-68
2022/09/22 07:26:50;;;;;;;;;;;;;;;6.74;74.20;98746.44;5073255;28;19920;-68
2022/09/22 07:29:18;;;;;;;;;;;;;;;6.88;73.88;98756.75;5070798;28;19927;-68
2022/09/22 07:31:46;;;;;;;;;;;;;;;6.95;73.68;98754.59;5065993;28;19924;-69
2022/09/22 07:34:15;;;;;;;;;;;;;;;7.05;74.38;98751.94;5061261;28;20015;-68
2022/09/22 07:36:44;;;;;;;;;;;;;;;7.18;73.66;98745.97;5063767;28;20254;-68
2022/09/22 07:39:12;;;;;;;;;;;;;;;7.10;74.63;98754.63;5068552;28;19932;-68
2022/09/22 07:42:10;;;;;;;;;;;;;;;7.30;74.29;98749.25;5078543;22;19966;-76
2022/09/22 07:50:53;;;;;;;;;;;;;;;7.25;74.00;98741.16;5048617;28;20366;-76
2022/09/22 07:53:22;;;;;;;;;;;;;;;7.30;74.07;98746.56;5077195;22;19921;-78
2022/09/22 07:55:51;;;;;;;;;;;;;;;7.53;74.36;98749.81;5014736;28;20282;-77
2022/09/22 07:58:24;;;;;;;;;;;;;;;7.60;74.11;98748.44;5021800;28;19982;-79
2022/09/22 08:00:55;;;;;;;;;;;;;;;7.79;73.54;98745.19;5035021;28;20341;-78
2022/09/22 08:03:47;;;;;;;;;;;;;;;8.02;73.50;98755.41;5026965;28;20585;-78
2022/09/22 08:06:22;;;;;;;;;;;;;;;8.16;73.00;98749.44;5034831;28;19925;-79
2022/09/22 08:08:52;;;;;;;;;;;;;;;8.25;72.83;98751.28;5003585;28;19921;-78
2022/09/22 08:11:47;;;;;;;;;;;;;;;8.40;72.59;98751.28;5014312;28;19933;-78
2022/09/22 08:14:17;;;;;;;;;;;;;;;8.51;72.34;98752.06;5033881;28;20011;-78
2022/09/22 08:16:50;;;;;;;;;;;;;;;8.61;72.62;98751.19;5038951;28;19925;-80
2022/09/22 08:19:19;;;;;;;;;;;;;;;8.70;72.30;98749.53;5020022;28;19965;-78
2022/09/22 08:21:50;;;;;;;;;;;;;;;8.66;71.70;98753.91;5044215;28;19924;-80
2022/09/22 08:24:20;;;;;;;;;;;;;;;8.85;72.50;98746.75;5016853;28;19921;-78
2022/09/22 08:26:54;;;;;;;;;;;;;;;9.00;72.16;98753.16;5036017;28;19921;-80
2022/09/22 08:29:23;;;;;;;;;;;;;;;9.10;71.77;98739.56;5013487;28;19920;-78
2022/09/22 08:31:54;;;;;;;;;;;;;;;9.19;70.84;98746.00;5051124;28;19921;-79
2022/09/22 08:34:22;;;;;;;;;;;;;;;9.23;70.44;98752.50;5013423;28;19982;-78
2022/09/22 08:36:51;;;;;;;;;;;;;;;9.27;70.14;98742.72;5015180;28;19974;-78
2022/09/22 08:39:19;;;;;;;;;;;;;;;9.36;70.53;98745.59;5017654;28;19972;-80
2022/09/22 08:41:56;;;;;;;;;;;;;;;9.47;70.67;98743.63;5013285;28;19951;-80
2022/09/22 08:44:27;;;;;;;;;;;;;;;9.54;70.54;98738.72;5025533;28;19982;-78
2022/09/22 08:53:22;;;;;;;;;;;;;;;9.89;69.22;98738.38;4896278;28;19921;-79
2022/09/22 08:55:57;;;;;;;;;;;;;;;9.96;68.25;98746.19;5018198;28;19998;-78
2022/09/22 08:58:30;;;;;;;;;;;;;;;9.98;68.69;98744.00;5018498;28;19964;-77
2022/09/22 09:01:25;;;;;;;;;;;;;;;10.09;68.62;98736.56;5026508;28;19924;-80
2022/09/22 09:04:00;;;;;;;;;;;;;;;10.25;69.60;98743.47;5026269;28;19951;-78
2022/09/22 09:06:31;;;;;;;;;;;;;;;10.38;69.27;98745.47;5019069;28;19932;-78
2022/09/22 09:09:03;;;;;;;;;;;;;;;10.47;68.27;98746.47;5034779;28;20333;-81
2022/09/22 09:11:39;;;;;;;;;;;;;;;10.52;67.76;98744.78;5030339;28;19921;-78
2022/09/22 09:14:12;;;;;;;;;;;;;;;10.58;67.13;98743.63;5018075;28;19929;-80
2022/09/22 09:16:45;;;;;;;;;;;;;;;10.67;67.20;98745.41;5026398;28;20447;-78
2022/09/22 09:19:17;;;;;;;;;;;;;;;10.75;67.10;98741.22;5029925;28;19928;-76
2022/09/22 09:21:50;;;;;;;;;;;;;;;10.85;67.15;98735.66;5033121;28;20363;-77
2022/09/22 09:24:25;;;;;;;;;;;;;;;10.97;68.02;98737.94;5046158;28;20020;-78
2022/09/22 09:27:14;;;;;;;;;;;;;;;11.07;67.43;98735.06;5029759;28;19921;-79
2022/09/22 09:29:44;;;;;;;;;;;;;;;11.14;65.76;98730.09;5031225;28;19946;-79
2022/09/22 09:32:17;;;;;;;;;;;;;;;11.23;64.67;98727.50;5018529;28;20002;-88
2022/09/22 09:34:48;;;;;;;;;;;;;;;11.36;64.39;98726.75;5045553;28;19921;-88
2022/09/22 09:37:20;;;;;;;;;;;;;;;11.44;63.67;98726.06;5017991;28;19921;-78
2022/09/22 09:42:41;;;;;;;;;;;;;;;11.59;64.03;98721.50;5061173;28;20370;-77
2022/09/22 09:45:13;;;;;;;;;;;;;;;11.70;63.31;98715.56;5015886;28;19920;-79
2022/09/22 09:47:52;;;;;;;;;;;;;;;11.69;62.88;98718.59;5026352;28;20462;-76
2022/09/22 09:50:30;;;;;;;;;;;;;;;11.73;63.54;98720.44;5033601;28;19960;-79
2022/09/22 09:53:24;;;;;;;;;;;;;;;11.80;62.34;98714.59;5022579;28;19928;-82
2022/09/22 09:55:54;;;;;;;;;;;;;;;11.83;62.52;98705.88;5030497;28;19979;-78
2022/09/22 10:01:11;;;;;;;;;;;;;;;12.05;61.73;98711.44;5013484;28;20015;-82
2022/09/22 10:06:35;;;;;;;;;;;;;;;12.37;59.38;98707.00;5031330;28;19925;-83
2022/09/22 10:09:04;;;;;;;;;;;;;;;12.47;58.27;98698.63;5014508;28;20022;-80
2022/09/22 10:11:33;;;;;;;;;;;;;;;12.50;58.77;98697.19;5016920;28;19927;-78
2022/09/22 10:14:03;;;;;;;;;;;;;;;12.63;58.61;98698.31;5033689;28;19921;-77
2022/09/22 10:16:34;;;;;;;;;;;;;;;12.75;59.51;98701.31;5016599;28;19931;-77
2022/09/22 10:19:05;;;;;;;;;;;;;;;12.82;59.36;98693.50;5034290;28;19928;-78
2022/09/22 10:21:37;;;;;;;;;;;;;;;12.92;58.89;98682.38;5016197;28;19920;-79
2022/09/22 10:24:22;;;;;;;;;;;;;;;13.00;58.34;98684.38;5049754;28;20290;-79
2022/09/22 10:26:54;;;;;;;;;;;;;;;13.05;54.92;98688.91;5035925;28;19921;-79
2022/09/22 10:29:26;;;;;;;;;;;;;;;13.17;52.00;98682.91;5030941;28;20374;-78
2022/09/22 10:32:02;;;;;;;;;;;;;;;13.28;52.99;98678.84;5028121;28;19977;-79
2022/09/22 10:34:31;;;;;;;;;;;;;;;13.32;54.50;98679.84;5033772;28;20221;-78
2022/09/22 10:37:02;;;;;;;;;;;;;;;13.50;55.02;98683.50;5013514;28;20337;-84
2022/09/22 10:39:33;;;;;;;;;;;;;;;13.62;55.50;98676.31;5049490;28;19921;-82
2022/09/22 10:42:02;;;;;;;;;;;;;;;13.70;55.52;98676.72;5016044;28;19952;-79
2022/09/22 10:44:32;;;;;;;;;;;;;;;13.69;54.96;98670.44;5009756;28;19920;-78
2022/09/22 10:47:33;;;;;;;;;;;;;;;13.82;54.67;98669.53;5048163;28;20387;-80
2022/09/22 10:50:20;;;;;;;;;;;;;;;13.86;52.19;98675.19;5016912;28;20394;-80
2022/09/22 10:56:12;;;;;;;;;;;;;;;13.78;49.95;98670.47;5025668;28;19921;-81
2022/09/22 10:58:45;;;;;;;;;;;;;;;13.82;49.91;98668.72;5012709;28;19971;-83
2022/09/22 11:01:18;;;;;;;;;;;;;;;13.92;50.78;98663.00;5005070;28;19921;-80
2022/09/22 11:04:12;;;;;;;;;;;;;;;13.95;50.59;98672.47;5043694;28;19952;-78
2022/09/22 11:12:36;;;;;;;;;;;;;;;13.87;49.32;98665.88;5028053;28;19943;-82
2022/09/22 11:15:07;;;;;;;;;;;;;;;13.76;50.56;98665.34;5037306;28;20268;-78
2022/09/22 11:18:15;;;;;;;;;;;;;;;13.72;51.77;98660.81;5047274;28;19940;-79
2022/09/22 11:20:45;;;;;;;;;;;;;;;13.78;50.39;98656.81;5046770;28;19970;-77
2022/09/22 11:23:23;;;;;;;;;;;;;;;13.70;49.44;98655.66;5016213;28;19928;-80
2022/09/22 11:26:00;;;;;;;;;;;;;;;13.76;50.08;98659.06;5033584;28;19928;-79
2022/09/22 11:28:36;;;;;;;;;;;;;;;13.91;50.28;98655.94;5053228;28;19921;-78
2022/09/22 11:31:04;;;;;;;;;;;;;;;14.01;49.25;98654.81;5015660;28;19924;-78
2022/09/22 11:33:51;;;;;;;;;;;;;;;14.10;49.33;98642.00;5019332;28;19921;-80
2022/09/22 11:36:21;;;;;;;;;;;;;;;14.06;50.18;98636.38;5040144;28;19948;-84
2022/09/22 11:38:58;;;;;;;;;;;;;;;13.98;51.11;98636.34;5032841;28;19950;-78
2022/09/22 11:41:47;;;;;;;;;;;;;;;13.83;52.02;98643.03;5049386;28;19998;-78
2022/09/22 11:44:43;;;;;;;;;;;;;;;13.66;51.32;98642.94;5040892;28;19982;-81
2022/09/22 11:47:38;;;;;;;;;;;;;;;13.55;51.33;98628.75;5025361;28;19933;-80
2022/09/22 11:50:39;;;;;;;;;;;;;;;13.47;52.35;98630.31;5014409;28;20400;-78
2022/09/22 11:53:33;;;;;;;;;;;;;;;13.42;52.43;98633.16;5038508;28;19921;-78
2022/09/22 11:56:11;;;;;;;;;;;;;;;13.39;51.92;98627.53;5031726;28;19921;-80
2022/09/22 11:58:42;;;;;;;;;;;;;;;13.34;53.01;98634.75;5021277;28;19960;-79
2022/09/22 12:01:21;;;;;;;;;;;;;;;13.38;52.49;98623.22;5036755;28;19925;-79
2022/09/22 12:03:56;;;;;;;;;;;;;;;13.47;52.74;98619.38;5017975;28;20506;-80
2022/09/22 12:06:27;;;;;;;;;;;;;;;13.66;49.95;98621.09;5025849;28;19920;-79
2022/09/22 12:08:58;;;;;;;;;;;;;;;13.72;47.55;98614.38;5036282;28;19920;-81
2022/09/22 12:11:27;;;;;;;;;;;;;;;13.62;48.27;98620.91;5017654;28;19936;-80
2022/09/22 12:13:58;;;;;;;;;;;;;;;13.55;48.03;98615.91;5020168;28;19966;-80
2022/09/22 12:16:30;;;;;;;;;;;;;;;13.50;49.30;98610.59;5016965;28;19928;-78
2022/09/22 12:19:00;;;;;;;;;;;;;;;13.45;50.22;98602.53;5038396;28;19921;-79
2022/09/22 12:21:48;;;;;;;;;;;;;;;13.44;49.36;98602.84;5045782;28;20015;-79
2022/09/22 12:24:17;;;;;;;;;;;;;;;13.50;49.69;98598.88;5037743;28;19921;-79
2022/09/22 12:26:47;;;;;;;;;;;;;;;13.47;51.24;98600.28;5019431;28;19981;-78
2022/09/22 12:29:24;;;;;;;;;;;;;;;13.45;51.21;98604.47;5018213;28;19920;-80
2022/09/22 12:32:00;;;;;;;;;;;;;;;13.40;52.95;98601.84;5033590;28;19920;-79
2022/09/22 12:34:33;;;;;;;;;;;;;;;13.58;52.42;98598.91;5013831;28;19955;-79
2022/09/22 12:37:08;;;;;;;;;;;;;;;13.79;51.72;98590.16;5032024;28;19925;-81
2022/09/22 12:39:41;;;;;;;;;;;;;;;13.97;48.40;98597.28;5030044;28;19921;-81
2022/09/22 12:42:17;;;;;;;;;;;;;;;14.08;50.23;98593.16;5050262;28;19928;-79
2022/09/22 12:50:38;;;;;;;;;;;;;;;14.45;47.74;98576.50;5035425;28;19951;-79
2022/09/22 12:53:32;;;;;;;;;;;;;;;14.58;45.52;98578.28;5017401;28;19955;-78
2022/09/22 12:56:03;;;;;;;;;;;;;;;14.63;44.25;98575.41;5030754;28;20851;-78
2022/09/22 12:58:52;;;;;;;;;;;;;;;14.72;45.51;98569.94;5034421;28;19931;-77
2022/09/22 13:01:36;;;;;;;;;;;;;;;14.65;46.28;98571.25;5028520;28;19921;-78
2022/09/22 13:04:06;;;;;;;;;;;;;;;14.76;47.61;98563.50;5022137;28;19936;-76
2022/09/22 13:06:54;;;;;;;;;;;;;;;15.00;44.41;98565.72;5038505;28;20011;-76
2022/09/22 13:09:24;;;;;;;;;;;;;;;15.04;45.13;98563.16;5032048;28;19921;-76
2022/09/22 13:12:11;;;;;;;;;;;;;;;15.16;43.63;98564.09;5046238;28;20626;-80
2022/09/22 13:15:11;;;;;;;;;;;;;;;15.24;43.83;98565.22;5045654;28;19920;-77
2022/09/22 13:17:43;;;;;;;;;;;;;;;15.26;44.30;98551.19;5030087;28;22580;-75
2022/09/22 13:20:18;;;;;;;;;;;;;;;15.13;43.46;98556.53;5027647;28;19940;-90
2022/09/22 13:22:47;;;;;;;;;;;;;;;15.05;44.52;98567.50;5015125;28;20015;-91
2022/09/22 13:25:17;;;;;;;;;;;;;;;14.98;44.85;98559.78;5012810;28;20023;-90
2022/09/22 13:27:46;;;;;;;;;;;;;;;14.92;45.02;98558.34;5047045;28;20019;-91
2022/09/22 13:30:22;;;;;;;;;;;;;;;14.91;44.44;98551.25;5046009;28;20405;-90
2022/09/22 13:35:44;;;;;;;;;;;;;;;14.60;45.76;98557.72;5020149;28;19933;-91
2022/09/22 13:38:13;;;;;;;;;;;;;;;14.45;45.25;98549.97;5032900;28;20030;-90
2022/09/22 13:40:45;;;;;;;;;;;;;;;14.36;44.30;98547.22;5055389;28;19925;-82
2022/09/22 13:43:38;;;;;;;;;;;;;;;14.34;44.61;98549.47;5043575;28;19925;-81
2022/09/22 13:46:34;;;;;;;;;;;;;;;14.41;44.13;98549.78;5030545;28;19929;-82
2022/09/22 13:49:05;;;;;;;;;;;;;;;14.59;45.54;98539.69;5031070;28;19933;-81
2022/09/22 13:51:34;;;;;;;;;;;;;;;14.73;44.79;98538.72;5016062;28;20763;-84
2022/09/22 13:54:04;;;;;;;;;;;;;;;14.82;45.38;98536.78;5043052;28;20341;-82
2022/09/22 13:56:32;;;;;;;;;;;;;;;14.90;44.71;98535.97;5033752;28;20386;-80
2022/09/22 13:59:03;;;;;;;;;;;;;;;14.98;44.83;98537.09;5035668;28;19925;-81
2022/09/22 14:01:36;;;;;;;;;;;;;;;14.90;44.87;98538.69;5033647;28;19925;-80
2022/09/22 14:04:19;;;;;;;;;;;;;;;15.01;43.29;98523.53;5018573;28;19925;-80
2022/09/22 14:06:50;;;;;;;;;;;;;;;15.08;43.36;98529.34;5029871;28;19939;-80
2022/09/22 14:09:20;;;;;;;;;;;;;;;15.01;42.41;98523.53;5047591;28;20331;-78
2022/09/22 14:11:48;;;;;;;;;;;;;;;15.10;42.86;98520.81;5018101;28;19939;-79
2022/09/22 14:14:21;;;;;;;;;;;;;;;15.22;42.06;98522.84;5028975;28;19924;-81
2022/09/22 14:16:49;;;;;;;;;;;;;;;15.24;41.33;98515.94;5045784;28;19931;-80